createdAt,value
2018-12-15T00:02:01.749Z,102612.63
2018-12-15T00:04:27.847Z,102608.28
2018-12-15T00:06:53.796Z,102613.69
2018-12-15T00:09:19.788Z,102617.73
2018-12-15T00:11:45.925Z,102612.33
2018-12-15T00:14:12.048Z,102615.56
2018-12-15T00:16:38.088Z,102615.56
2018-12-15T00:19:04.153Z,102620.17
2018-12-15T00:21:30.139Z,102613.94
2018-12-15T00:23:56.132Z,102618.52
2018-12-15T00:26:22.088Z,102619.28
2018-12-15T00:28:48.076Z,102621.98
2018-12-15T00:31:13.997Z,102624.95
2018-12-15T00:33:39.936Z,102631.70
2018-12-15T00:36:05.944Z,102630.34
2018-12-15T00:38:31.880Z,102637.36
2018-12-15T00:40:57.889Z,102633.61
2018-12-15T00:43:23.828Z,102640.63
2018-12-15T00:45:49.833Z,102636.27
2018-12-15T00:48:15.768Z,102634.13
2018-12-15T00:50:41.768Z,102630.87
2018-12-15T00:53:07.717Z,102628.16
2018-12-15T00:55:33.716Z,102636.80
2018-12-15T00:57:59.657Z,102636.27
2018-12-15T01:00:25.659Z,102638.41
2018-12-15T01:02:51.604Z,102633.83
2018-12-15T01:05:17.609Z,102642.98
2018-12-15T01:07:43.752Z,102649.22
2018-12-15T01:10:09.756Z,102653.27
2018-12-15T01:12:35.692Z,102650.00
2018-12-15T01:15:01.865Z,102656.23
2018-12-15T01:17:27.821Z,102651.35
2018-12-15T01:19:53.862Z,102651.61
2018-12-15T01:22:19.986Z,102652.44
2018-12-15T01:24:46.023Z,102657.54
2018-12-15T01:27:12.116Z,102655.09
2018-12-15T01:29:38.056Z,102655.09
2018-12-15T01:32:04.056Z,102654.31
2018-12-15T01:34:30.012Z,102656.18
2018-12-15T01:36:56.010Z,102656.18
2018-12-15T01:39:22.053Z,102653.21
2018-12-15T01:41:48.059Z,102658.06
2018-12-15T01:44:14.091Z,102661.02
2018-12-15T01:46:40.102Z,102658.31
2018-12-15T01:49:06.048Z,102656.97
2018-12-15T01:51:32.144Z,102651.30
2018-12-15T01:53:58.099Z,102649.12
2018-12-15T01:56:24.093Z,102652.91
2018-12-15T01:58:50.113Z,102651.82
2018-12-15T02:01:16.050Z,102651.00
2018-12-15T02:03:42.048Z,102651.55
2018-12-15T02:06:08.001Z,102650.73
2018-12-15T02:08:34.001Z,102647.20
2018-12-15T02:10:59.944Z,102650.73
2018-12-15T02:13:25.944Z,102645.06
2018-12-15T02:15:51.884Z,102645.84
2018-12-15T02:18:17.885Z,102645.84
2018-12-15T02:20:43.924Z,102648.28
2018-12-15T02:23:09.930Z,102651.52
2018-12-15T02:25:35.860Z,102655.30
2018-12-15T02:28:01.875Z,102656.38
2018-12-15T02:30:27.873Z,102653.68
2018-12-15T02:32:53.937Z,102655.56
2018-12-15T02:35:20.072Z,102655.30
2018-12-15T02:37:46.169Z,102654.48
2018-12-15T02:40:12.128Z,102654.47
2018-12-15T02:42:38.117Z,102664.48
2018-12-15T02:45:04.175Z,102657.73
2018-12-15T02:47:30.185Z,102661.78
2018-12-15T02:49:56.185Z,102663.92
2018-12-15T02:52:22.328Z,102665.27
2018-12-15T02:54:48.337Z,102661.22
2018-12-15T02:57:14.376Z,102661.48
2018-12-15T02:59:40.378Z,102657.42
2018-12-15T03:02:06.415Z,102659.05
2018-12-15T03:04:32.552Z,102661.74
2018-12-15T03:06:58.568Z,102661.48
2018-12-15T03:09:24.564Z,102656.87
2018-12-15T03:11:50.504Z,102653.63
2018-12-15T03:14:16.521Z,102657.69
2018-12-15T03:16:48.278Z,102659.03
2018-12-15T03:19:14.396Z,102659.03
2018-12-15T03:21:40.448Z,102657.39
2018-12-15T03:24:06.452Z,102653.89
2018-12-15T03:26:32.504Z,102660.09
2018-12-15T03:28:58.488Z,102653.06
2018-12-15T03:31:24.418Z,102652.24
2018-12-15T03:33:50.556Z,102662.52
2018-12-15T03:36:16.552Z,102650.06
2018-12-15T03:38:42.504Z,102650.89
2018-12-15T03:41:08.501Z,102653.59
2018-12-15T03:43:34.440Z,102657.12
2018-12-15T03:46:00.448Z,102655.24
2018-12-15T03:48:26.387Z,102644.39
2018-12-15T03:50:52.494Z,102645.22
2018-12-15T03:53:18.440Z,102645.75
2018-12-15T03:55:44.532Z,102597.15
2018-12-15T03:58:10.480Z,102642.78
2018-12-15T04:00:36.588Z,102652.50
2018-12-15T04:03:02.626Z,102646.83
2018-12-15T04:05:28.733Z,102647.88
2018-12-15T04:07:54.674Z,102653.58
2018-12-15T04:10:20.788Z,102652.76
2018-12-15T04:12:46.844Z,102652.23
2018-12-15T04:15:12.930Z,102654.94
2018-12-15T04:17:39.053Z,102663.30
2018-12-15T04:20:05.100Z,102659.77
2018-12-15T04:22:31.200Z,102670.84
2018-12-15T04:24:57.158Z,102670.56
2018-12-15T04:27:23.240Z,102675.45
2018-12-15T04:29:49.193Z,102675.45
2018-12-15T04:32:15.293Z,102670.56
2018-12-15T04:34:41.227Z,102668.95
2018-12-15T04:37:07.242Z,102675.97
2018-12-15T04:39:33.285Z,102680.02
2018-12-15T04:41:59.297Z,102674.35
2018-12-15T04:44:25.368Z,102676.23
2018-12-15T04:46:51.434Z,102673.00
2018-12-15T04:49:17.474Z,102665.95
2018-12-15T04:51:43.493Z,102671.91
2018-12-15T04:54:09.525Z,102666.73
2018-12-15T04:56:35.624Z,102675.96
2018-12-15T04:59:01.538Z,102674.05
2018-12-15T05:01:27.485Z,102675.96
2018-12-15T05:03:53.492Z,102675.66
2018-12-15T05:06:19.528Z,102674.61
2018-12-15T05:08:45.531Z,102670.30
2018-12-15T05:11:11.477Z,102671.91
2018-12-15T05:13:37.585Z,102671.36
2018-12-15T05:16:03.528Z,102672.44
2018-12-15T05:18:29.520Z,102666.72
2018-12-15T05:20:55.567Z,102668.09
2018-12-15T05:23:21.569Z,102676.48
2018-12-15T05:25:47.502Z,102674.61
2018-12-15T05:28:13.521Z,102672.14
2018-12-15T05:30:39.548Z,102674.31
2018-12-15T05:33:05.569Z,102676.19
2018-12-15T05:35:31.616Z,102673.48
2018-12-15T05:37:57.604Z,102667.03
2018-12-15T05:40:23.548Z,102676.19
2018-12-15T05:42:49.544Z,102677.27
2018-12-15T05:45:15.496Z,102676.48
2018-12-15T05:47:41.513Z,102678.62
2018-12-15T05:50:07.521Z,102677.80
2018-12-15T05:52:33.562Z,102681.32
2018-12-15T05:54:59.664Z,102678.62
2018-12-15T05:57:25.604Z,102681.59
2018-12-15T05:59:51.601Z,102685.11
2018-12-15T06:02:17.652Z,102682.67
2018-12-15T06:04:43.661Z,102679.14
2018-12-15T06:07:09.696Z,102677.80
2018-12-15T06:09:35.700Z,102677.00
2018-12-15T06:12:01.644Z,102677.00
2018-12-15T06:14:27.638Z,102675.92
2018-12-15T06:16:53.580Z,102677.00
2018-12-15T06:19:19.604Z,102680.75
2018-12-15T06:21:45.624Z,102684.80
2018-12-15T06:24:11.632Z,102679.12
2018-12-15T06:26:37.564Z,102679.12
2018-12-15T06:29:03.575Z,102679.95
2018-12-15T06:31:29.497Z,102681.31
2018-12-15T06:33:55.431Z,102681.27
2018-12-15T06:36:21.441Z,102678.56
2018-12-15T06:38:47.376Z,102677.21
2018-12-15T06:41:13.380Z,102680.17
2018-12-15T06:43:39.336Z,102689.89
2018-12-15T06:46:05.334Z,102686.66
2018-12-15T06:48:31.373Z,102685.31
2018-12-15T06:51:00.017Z,102683.70
2018-12-15T06:53:26.080Z,102685.84
2018-12-15T06:55:52.077Z,102678.56
2018-12-15T06:58:18.136Z,102682.09
2018-12-15T07:00:44.128Z,102680.73
2018-12-15T07:03:10.064Z,102680.73
2018-12-15T07:05:36.072Z,102686.70
2018-12-15T07:08:02.013Z,102685.05
2018-12-15T07:10:28.016Z,102692.11
2018-12-15T07:12:54.185Z,102685.36
2018-12-15T07:15:20.163Z,102688.33
2018-12-15T07:17:46.185Z,102688.85
2018-12-15T07:20:12.229Z,102685.37
2018-12-15T07:22:38.233Z,102683.75
2018-12-15T07:25:04.189Z,102682.40
2018-12-15T07:27:30.172Z,102684.02
2018-12-15T07:29:56.116Z,102687.28
2018-12-15T07:32:22.112Z,102689.98
2018-12-15T07:34:48.072Z,102691.34
2018-12-15T07:37:14.169Z,102694.05
2018-12-15T07:39:40.204Z,102690.26
2018-12-15T07:42:06.200Z,102693.26
2018-12-15T07:44:32.153Z,102688.13
2018-12-15T07:46:58.160Z,102690.00
2018-12-15T07:49:24.196Z,102689.20
2018-12-15T07:51:50.721Z,102688.13
2018-12-15T07:54:16.760Z,102688.13
2018-12-15T07:56:42.753Z,102684.59
2018-12-15T07:59:08.694Z,102686.50
2018-12-15T08:01:34.700Z,102685.16
2018-12-15T08:04:00.626Z,102689.48
2018-12-15T08:06:26.772Z,102689.54
2018-12-15T08:08:52.876Z,102690.15
2018-12-15T08:11:18.812Z,102688.55
2018-12-15T08:13:44.822Z,102695.14
2018-12-15T08:16:10.856Z,102693.28
2018-12-15T08:18:36.876Z,102691.41
2018-12-15T08:21:02.916Z,102687.91
2018-12-15T08:23:28.907Z,102687.61
2018-12-15T08:25:54.844Z,102690.31
2018-12-15T08:28:20.844Z,102690.31
2018-12-15T08:30:46.788Z,102693.05
2018-12-15T08:33:12.897Z,102695.58
2018-12-15T08:35:38.882Z,102697.46
2018-12-15T08:38:04.840Z,102694.41
2018-12-15T08:40:30.780Z,102690.57
2018-12-15T08:42:56.784Z,102699.47
2018-12-15T08:45:22.791Z,102698.89
2018-12-15T08:47:48.849Z,102693.74
2018-12-15T08:50:14.853Z,102699.97
2018-12-15T08:52:40.792Z,102699.45
2018-12-15T08:55:06.792Z,102709.18
2018-12-15T08:57:32.736Z,102707.30
2018-12-15T08:59:58.741Z,102712.76
2018-12-15T09:02:24.780Z,102708.19
2018-12-15T09:04:50.792Z,102706.09
2018-12-15T09:07:16.829Z,102705.04
2018-12-15T09:09:42.943Z,102703.43
2018-12-15T09:12:08.985Z,102704.56
2018-12-15T09:14:34.993Z,102699.98
2018-12-15T09:17:01.024Z,102698.68
2018-12-15T09:19:27.040Z,102694.10
2018-12-15T09:21:53.076Z,102698.16
2018-12-15T09:24:19.116Z,102699.29
2018-12-15T09:26:45.056Z,102696.89
2018-12-15T09:29:11.016Z,102699.86
2018-12-15T09:31:36.932Z,102696.09
2018-12-15T09:34:02.878Z,102700.69
2018-12-15T09:36:28.980Z,102699.37
2018-12-15T09:38:54.924Z,102695.61
2018-12-15T09:41:20.925Z,102698.59
2018-12-15T09:43:46.865Z,102696.18
2018-12-15T09:46:12.869Z,102695.13
2018-12-15T09:48:38.809Z,102694.07
2018-12-15T09:51:04.820Z,102694.63
2018-12-15T09:53:30.857Z,102695.45
2018-12-15T09:55:56.852Z,102696.81
2018-12-15T09:58:22.796Z,102696.55
2018-12-15T10:00:48.797Z,102692.78
2018-12-15T10:03:14.740Z,102687.91
2018-12-15T10:05:40.746Z,102694.37
2018-12-15T10:08:06.688Z,102687.11
2018-12-15T10:10:32.695Z,102684.20
2018-12-15T10:12:58.752Z,102677.79
2018-12-15T10:15:24.741Z,102681.05
2018-12-15T10:17:50.766Z,102674.57
2018-12-15T10:20:16.805Z,102680.27
2018-12-15T10:22:42.808Z,102674.63
2018-12-15T10:25:08.848Z,102674.34
2018-12-15T10:27:34.843Z,102678.70
2018-12-15T10:30:00.788Z,102672.21
2018-12-15T10:32:26.796Z,102667.62
2018-12-15T10:34:52.736Z,102665.14
2018-12-15T10:37:18.737Z,102668.12
2018-12-15T10:39:44.677Z,102657.84
2018-12-15T10:42:10.685Z,102663.30
2018-12-15T10:44:36.748Z,102655.19
2018-12-15T10:47:02.724Z,102646.25
2018-12-15T10:49:30.890Z,102638.95
2018-12-15T10:51:56.647Z,102643.27
2018-12-15T10:54:22.656Z,102635.44
2018-12-15T10:56:48.764Z,102630.03
2018-12-15T10:59:14.713Z,102632.46
2018-12-15T11:01:40.699Z,102633.84
2018-12-15T11:04:06.669Z,102629.49
2018-12-15T11:06:32.656Z,102635.72
2018-12-15T11:08:58.675Z,102630.09
2018-12-15T11:11:24.617Z,102628.73
2018-12-15T11:13:50.616Z,102628.19
2018-12-15T11:16:16.561Z,102624.67
2018-12-15T11:18:42.556Z,102618.45
2018-12-15T11:21:08.613Z,102617.89
2018-12-15T11:23:34.717Z,102618.17
2018-12-15T11:26:00.759Z,102604.35
2018-12-15T11:28:26.856Z,102598.65
2018-12-15T11:30:52.800Z,102601.38
2018-12-15T11:33:18.796Z,102599.74
2018-12-15T11:35:44.740Z,102592.42
2018-12-15T11:38:10.750Z,102593.23
2018-12-15T11:40:36.787Z,102591.06
2018-12-15T11:43:02.899Z,102588.64
2018-12-15T11:45:28.936Z,102591.35
2018-12-15T11:47:54.951Z,102592.14
2018-12-15T11:50:21.083Z,102592.98
2018-12-15T11:52:47.093Z,102584.56
2018-12-15T11:55:13.137Z,102585.38
2018-12-15T11:57:39.152Z,102581.58
2018-12-15T12:00:05.293Z,102591.89
2018-12-15T12:02:31.958Z,102581.86
2018-12-15T12:04:58.228Z,102577.77
2018-12-15T12:07:24.169Z,102578.30
2018-12-15T12:09:50.180Z,102573.97
2018-12-15T12:12:16.212Z,102566.11
2018-12-15T12:14:42.217Z,102573.95
2018-12-15T12:17:08.148Z,102567.45
2018-12-15T12:19:34.169Z,102565.53
2018-12-15T12:22:00.212Z,102563.64
2018-12-15T12:24:26.225Z,102553.88
2018-12-15T12:26:52.172Z,102553.84
2018-12-15T12:29:18.157Z,102552.49
2018-12-15T12:31:44.196Z,102549.50
2018-12-15T12:34:10.200Z,102542.98
2018-12-15T12:36:36.136Z,102546.55
2018-12-15T12:39:02.278Z,102552.48
2018-12-15T12:41:28.445Z,102550.31
2018-12-15T12:43:54.492Z,102549.51
2018-12-15T12:46:20.449Z,102546.52
2018-12-15T12:48:46.606Z,102545.42
2018-12-15T12:51:12.593Z,102548.93
2018-12-15T12:53:38.584Z,102546.76
2018-12-15T12:56:04.524Z,102552.44
2018-12-15T12:58:30.528Z,102552.16
2018-12-15T13:00:56.480Z,102551.88
2018-12-15T13:03:22.468Z,102547.79
2018-12-15T13:05:48.388Z,102553.76
2018-12-15T13:08:14.336Z,102553.20
2018-12-15T13:10:40.341Z,102549.09
2018-12-15T13:13:06.381Z,102545.85
2018-12-15T13:15:32.384Z,102545.57
2018-12-15T13:17:58.322Z,102545.30
2018-12-15T13:20:24.329Z,102542.76
2018-12-15T13:22:50.368Z,102545.39
2018-12-15T13:25:16.367Z,102538.44
2018-12-15T13:27:42.296Z,102541.17
2018-12-15T13:30:08.441Z,102536.80
2018-12-15T13:32:34.460Z,102539.90
2018-12-15T13:35:00.464Z,102540.22
2018-12-15T13:37:26.404Z,102532.53
2018-12-15T13:39:52.408Z,102534.30
2018-12-15T13:42:18.348Z,102526.38
2018-12-15T13:44:44.357Z,102529.44
2018-12-15T13:47:10.492Z,102537.63
2018-12-15T13:49:36.496Z,102529.28
2018-12-15T13:52:02.452Z,102525.78
2018-12-15T13:54:28.452Z,102512.77
2018-12-15T13:56:54.508Z,102519.28
2018-12-15T13:59:20.490Z,102517.43
2018-12-15T14:01:46.613Z,102519.88
2018-12-15T14:04:12.562Z,102514.42
2018-12-15T14:06:38.565Z,102521.14
2018-12-15T14:09:05.748Z,102511.98
2018-12-15T14:11:31.725Z,102513.25
2018-12-15T14:13:57.684Z,102514.83
2018-12-15T14:16:23.676Z,102507.78
2018-12-15T14:18:49.614Z,102516.02
2018-12-15T14:21:16.104Z,102510.26
2018-12-15T14:23:42.086Z,102510.97
2018-12-15T14:26:08.180Z,102506.81
2018-12-15T14:28:34.116Z,102509.51
2018-12-15T14:31:00.120Z,102507.77
2018-12-15T14:33:26.164Z,102504.72
2018-12-15T14:35:52.169Z,102509.72
2018-12-15T14:38:18.212Z,102503.22
2018-12-15T14:40:44.212Z,102498.88
2018-12-15T14:43:10.152Z,102492.53
2018-12-15T14:45:36.163Z,102493.98
2018-12-15T14:48:02.205Z,102497.23
2018-12-15T14:50:28.203Z,102500.09
2018-12-15T14:59:39.341Z,102472.25
2018-12-15T15:02:05.344Z,102475.95
2018-12-15T15:04:31.285Z,102473.62
2018-12-15T15:06:57.289Z,102468.54
2018-12-15T15:09:23.228Z,102470.48
2018-12-15T15:11:49.234Z,102469.22
2018-12-15T15:14:15.276Z,102471.39
2018-12-15T15:16:41.280Z,102458.96
2018-12-15T15:19:07.324Z,102442.43
2018-12-15T15:21:33.390Z,102450.45
2018-12-15T15:23:59.470Z,102454.72
2018-12-15T15:26:25.480Z,102454.50
2018-12-15T15:28:51.515Z,102450.11
2018-12-15T15:31:17.516Z,102448.39
2018-12-15T15:33:43.468Z,102446.38
2018-12-15T15:36:09.566Z,102438.27
2018-12-15T15:38:35.705Z,102437.61
2018-12-15T15:41:01.727Z,102428.97
2018-12-15T15:43:27.926Z,102424.11
2018-12-15T15:45:54.303Z,102425.22
2018-12-15T15:48:20.337Z,102420.61
2018-12-15T15:50:46.341Z,102412.75
2018-12-15T15:53:12.356Z,102404.33
2018-12-15T15:55:38.393Z,102411.89
2018-12-15T15:58:04.377Z,102403.02
2018-12-15T16:00:30.325Z,102399.16
2018-12-15T16:02:56.328Z,102396.02
2018-12-15T16:05:22.284Z,102397.36
2018-12-15T16:07:48.273Z,102380.74
2018-12-15T16:10:14.317Z,102380.63
2018-12-15T16:12:41.137Z,102371.72
2018-12-15T16:15:07.627Z,102373.94
2018-12-15T16:17:33.592Z,102370.35
2018-12-15T16:19:59.635Z,102372.63
2018-12-15T16:22:25.641Z,102379.44
2018-12-15T16:24:51.681Z,102373.45
2018-12-15T16:27:17.600Z,102367.70
2018-12-15T16:29:43.627Z,102369.91
2018-12-15T16:32:09.628Z,102359.68
2018-12-15T16:34:35.576Z,102349.91
2018-12-15T16:37:01.588Z,102346.03
2018-12-15T16:39:27.620Z,102349.13
2018-12-15T16:41:53.619Z,102346.02
2018-12-15T16:44:19.581Z,102347.03
2018-12-15T16:46:45.564Z,102338.02
2018-12-15T16:49:11.576Z,102337.15
2018-12-15T16:51:37.533Z,102338.64
2018-12-15T16:54:03.541Z,102336.83
2018-12-15T16:56:29.598Z,102342.55
2018-12-15T16:58:55.681Z,102339.66
2018-12-15T17:01:21.726Z,102336.70
2018-12-15T17:03:47.723Z,102334.56
2018-12-15T17:06:13.889Z,102328.59
2018-12-15T17:08:39.887Z,102323.46
2018-12-15T17:11:05.927Z,102324.03
2018-12-15T17:13:31.933Z,102322.99
2018-12-15T17:15:58.072Z,102317.31
2018-12-15T17:18:24.069Z,102320.03
2018-12-15T17:20:56.479Z,102312.75
2018-12-15T17:23:18.265Z,102314.39
2018-12-15T17:25:44.308Z,102313.03
2018-12-15T17:28:10.244Z,102309.53
2018-12-15T17:30:36.248Z,102311.20
2018-12-15T17:33:02.268Z,102308.72
2018-12-15T17:35:28.301Z,102306.28
2018-12-15T17:37:54.616Z,102301.43
2018-12-15T17:40:20.676Z,102296.77
2018-12-15T17:42:46.653Z,102301.11
2018-12-15T17:45:12.612Z,102297.83
2018-12-15T17:47:38.601Z,102298.61
2018-12-15T17:50:05.600Z,102284.23
2018-12-15T17:52:31.568Z,102283.95
2018-12-15T17:54:57.592Z,102277.45
2018-12-15T17:57:23.632Z,102280.16
2018-12-15T17:59:49.638Z,102280.16
2018-12-15T18:02:15.681Z,102284.73
2018-12-15T18:04:41.676Z,102283.91
2018-12-15T18:07:07.625Z,102283.63
2018-12-15T18:09:33.621Z,102271.42
2018-12-15T18:11:59.564Z,102268.41
2018-12-15T18:14:25.583Z,102261.59
2018-12-15T18:16:51.709Z,102247.75
2018-12-15T18:19:17.709Z,102236.31
2018-12-15T18:21:43.760Z,102235.50
2018-12-15T18:24:09.760Z,102217.41
2018-12-15T18:26:35.700Z,102234.63
2018-12-15T18:29:01.709Z,102236.02
2018-12-15T18:31:27.752Z,102227.63
2018-12-15T18:33:53.761Z,102232.78
2018-12-15T18:36:19.800Z,102224.68
2018-12-15T18:38:45.799Z,102218.19
2018-12-15T18:41:11.836Z,102207.62
2018-12-15T18:43:37.967Z,102212.77
2018-12-15T18:46:14.642Z,102204.38
2018-12-15T18:48:56.285Z,102198.17
2018-12-15T18:51:28.395Z,102197.61
2018-12-15T18:54:02.522Z,102191.15
2018-12-15T18:56:28.740Z,102194.69
2018-12-15T18:58:54.732Z,102188.73
2018-12-15T19:01:20.690Z,102181.70
2018-12-15T19:03:46.784Z,102177.92
2018-12-15T19:06:12.828Z,102172.79
2018-12-15T19:08:38.824Z,102172.25
2018-12-15T19:11:04.769Z,102172.30
2018-12-15T19:13:30.775Z,102168.73
2018-12-15T19:15:56.921Z,102163.06
2018-12-15T19:18:22.940Z,102157.92
2018-12-15T19:20:48.948Z,102151.98
2018-12-15T19:23:14.985Z,102148.77
2018-12-15T19:25:40.993Z,102151.52
2018-12-15T19:28:06.933Z,102151.78
2018-12-15T19:30:32.936Z,102148.00
2018-12-15T19:32:58.987Z,102146.92
2018-12-15T19:35:24.978Z,102145.61
2018-12-15T19:37:50.932Z,102146.47
2018-12-15T19:40:16.916Z,102139.41
2018-12-15T19:42:42.855Z,102142.41
2018-12-15T19:45:08.864Z,102134.03
2018-12-15T19:47:35.024Z,102125.08
2018-12-15T19:50:01.021Z,102122.66
2018-12-15T19:52:27.056Z,102121.58
2018-12-15T19:54:53.061Z,102119.70
2018-12-15T19:57:19.005Z,102117.27
2018-12-15T19:59:45.090Z,102112.14
2018-12-15T20:02:11.149Z,102103.76
2018-12-15T20:04:37.253Z,102101.88
2018-12-15T20:07:03.204Z,102102.95
2018-12-15T20:09:29.201Z,102101.88
2018-12-15T20:11:55.244Z,102091.60
2018-12-15T20:14:21.245Z,102086.47
2018-12-15T20:16:47.376Z,102084.34
2018-12-15T20:19:13.415Z,102094.35
2018-12-15T20:21:39.412Z,102087.30
2018-12-15T20:24:05.366Z,102081.37
2018-12-15T20:26:31.460Z,102081.09
2018-12-15T20:28:57.404Z,102078.67
2018-12-15T20:31:23.409Z,102080.31
2018-12-15T20:33:49.457Z,102081.42
2018-12-15T20:36:15.453Z,102080.60
2018-12-15T20:38:41.389Z,102061.38
2018-12-15T20:41:07.396Z,102057.86
2018-12-15T20:43:33.542Z,102060.60
2018-12-15T20:45:59.541Z,102058.68
2018-12-15T20:48:25.484Z,102059.50
2018-12-15T20:50:51.489Z,102051.95
2018-12-15T20:53:17.433Z,102041.97
2018-12-15T20:55:43.432Z,102043.58
2018-12-15T20:58:09.476Z,102049.28
2018-12-15T21:00:35.481Z,102044.72
2018-12-15T21:03:01.516Z,102042.80
2018-12-15T21:05:27.537Z,102036.84
2018-12-15T21:07:53.573Z,102034.42
2018-12-15T21:10:19.569Z,102037.42
2018-12-15T21:12:45.726Z,102032.82
2018-12-15T21:15:11.717Z,102028.23
2018-12-15T21:17:37.656Z,102023.38
2018-12-15T21:20:04.102Z,102023.38
2018-12-15T21:22:30.200Z,102007.70
2018-12-15T21:24:56.240Z,102010.45
2018-12-15T21:27:22.241Z,102007.20
2018-12-15T21:29:48.180Z,102008.84
2018-12-15T21:32:14.189Z,102004.00
2018-12-15T21:34:40.124Z,101996.95
2018-12-15T21:37:06.128Z,101992.39
2018-12-15T21:39:32.076Z,101994.28
2018-12-15T21:41:58.073Z,101987.27
2018-12-15T21:44:24.012Z,101979.42
2018-12-15T21:46:50.019Z,101971.88
2018-12-15T21:49:16.060Z,101964.04
2018-12-15T21:51:42.068Z,101950.80
2018-12-15T21:54:08.113Z,101945.38
2018-12-15T21:56:34.105Z,101949.44
2018-12-15T21:59:00.049Z,101940.53
2018-12-15T22:01:26.052Z,101940.00
2018-12-15T22:03:51.996Z,101939.75
2018-12-15T22:06:17.992Z,101938.40
2018-12-15T22:08:43.938Z,101924.63
2018-12-15T22:11:09.946Z,101919.49
2018-12-15T22:13:35.981Z,101921.13
2018-12-15T22:16:01.991Z,101914.37
2018-12-15T22:18:28.033Z,101904.40
2018-12-15T22:20:54.042Z,101901.41
2018-12-15T22:23:20.209Z,101898.45
2018-12-15T22:25:46.180Z,101892.55
2018-12-15T22:28:12.092Z,101889.02
2018-12-15T22:30:38.046Z,101883.89
2018-12-15T22:33:04.040Z,101871.19
2018-12-15T22:35:29.972Z,101872.01
2018-12-15T22:37:55.988Z,101862.83
2018-12-15T22:40:21.938Z,101857.16
2018-12-15T22:42:47.928Z,101857.45
2018-12-15T22:45:13.922Z,101845.81
2018-12-15T22:47:39.973Z,101833.68
2018-12-15T22:50:06.460Z,101830.69
2018-12-15T22:52:32.437Z,101833.12
2018-12-15T22:54:58.476Z,101828.02
2018-12-15T22:57:24.493Z,101830.73
2018-12-15T22:59:50.521Z,101835.60
2018-12-15T23:02:16.533Z,101827.24
2018-12-15T23:04:42.664Z,101824.00
2018-12-15T23:07:08.668Z,101822.66
2018-12-15T23:09:34.612Z,101821.87
2018-12-15T23:12:00.612Z,101814.05
2018-12-15T23:14:26.568Z,101814.33
2018-12-15T23:16:52.557Z,101807.03
2018-12-15T23:19:18.561Z,101813.55
2018-12-15T23:21:44.605Z,101810.30
2018-12-15T23:24:10.525Z,101810.02
2018-12-15T23:26:36.460Z,101796.79
2018-12-15T23:29:02.377Z,101796.79
2018-12-15T23:31:28.412Z,101787.89
2018-12-15T23:33:54.408Z,101790.34
2018-12-15T23:36:20.352Z,101784.12
2018-12-15T23:38:46.364Z,101782.23
2018-12-15T23:41:12.395Z,101774.98
2018-12-15T23:43:38.400Z,101774.98
2018-12-15T23:46:04.336Z,101767.94
2018-12-15T23:48:30.344Z,101762.28
2018-12-15T23:50:56.293Z,101753.64
2018-12-15T23:53:22.284Z,101753.39
2018-12-15T23:55:48.225Z,101746.92
2018-12-15T23:58:14.225Z,101747.45
